createdAt,value
2023-04-02T00:00:36.351Z,100935.66
2023-04-02T00:01:39.225Z,100939.22
2023-04-02T00:02:59.065Z,100941.81
2023-04-02T00:04:00.547Z,100944.47
2023-04-02T00:05:16.240Z,100949.84
2023-04-02T00:06:34.138Z,100944.47
2023-04-02T00:07:38.182Z,100943.56
2023-04-02T00:08:43.390Z,100941.88
2023-04-02T00:09:44.934Z,100942.78
2023-04-02T00:10:49.509Z,100958.03
2023-04-02T00:11:54.749Z,100948.19
2023-04-02T00:13:01.950Z,100954.38
2023-04-02T00:14:06.565Z,100942.69
2023-04-02T00:15:12.915Z,100948.06
2023-04-02T00:16:21.293Z,100953.53
2023-04-02T00:17:24.637Z,100954.50
2023-04-02T00:18:27.484Z,100959.94
2023-04-02T00:19:38.278Z,100956.34
2023-04-02T00:20:43.807Z,100958.03
2023-04-02T00:21:47.256Z,100962.59
2023-04-02T00:22:49.099Z,100954.53
2023-04-02T00:23:50.609Z,100958.09
2023-04-02T00:24:54.182Z,100965.16
2023-04-02T00:25:55.684Z,100962.44
2023-04-02T00:26:57.373Z,100975.00
2023-04-02T00:27:58.873Z,100964.19
2023-04-02T00:29:01.778Z,100969.66
2023-04-02T00:30:04.274Z,100961.50
2023-04-02T00:31:05.770Z,100971.50
2023-04-02T00:32:20.045Z,100967.94
2023-04-02T00:33:25.675Z,100973.31
2023-04-02T00:34:37.142Z,100976.88
2023-04-02T00:35:39.342Z,100975.91
2023-04-02T00:36:41.926Z,100977.72
2023-04-02T00:37:44.315Z,100981.41
2023-04-02T00:38:48.826Z,100987.75
2023-04-02T00:40:07.282Z,100983.16
2023-04-02T00:41:10.363Z,100990.28
2023-04-02T00:42:12.918Z,100990.25
2023-04-02T00:43:16.715Z,100994.66
2023-04-02T00:44:21.577Z,100990.22
2023-04-02T00:45:30.821Z,101001.84
2023-04-02T00:46:46.702Z,100981.06
2023-04-02T00:47:48.353Z,100997.34
2023-04-02T00:49:09.016Z,100997.34
2023-04-02T00:50:14.441Z,101000.91
2023-04-02T00:51:19.374Z,101006.38
2023-04-02T00:52:25.140Z,101001.81
2023-04-02T00:53:31.833Z,101007.16
2023-04-02T00:54:41.642Z,101013.38
2023-04-02T00:55:43.971Z,101009.97
2023-04-02T00:56:48.327Z,101008.16
2023-04-02T00:57:51.049Z,101014.44
2023-04-02T00:58:55.368Z,101015.28
2023-04-02T00:59:56.775Z,101012.59
2023-04-02T01:00:59.247Z,101010.69
2023-04-02T01:02:26.204Z,101023.31
2023-04-02T01:03:36.555Z,101020.63
2023-04-02T01:04:38.752Z,101016.97
2023-04-02T01:05:42.466Z,101024.16
2023-04-02T01:06:45.945Z,101027.66
2023-04-02T01:07:50.303Z,101019.56
2023-04-02T01:09:07.612Z,101029.44
2023-04-02T01:10:22.514Z,101026.72
2023-04-02T01:12:01.957Z,101039.34
2023-04-02T01:13:47.190Z,101039.31
2023-04-02T01:15:30.141Z,101040.28
2023-04-02T01:16:32.124Z,101042.88
2023-04-02T01:17:43.076Z,101050.97
2023-04-02T01:19:02.284Z,101045.56
2023-04-02T01:20:34.594Z,101056.31
2023-04-02T01:22:06.944Z,101059.84
2023-04-02T01:23:35.476Z,101055.25
2023-04-02T01:24:39.777Z,101054.28
2023-04-02T01:25:51.061Z,101065.22
2023-04-02T01:27:21.399Z,101063.56
2023-04-02T01:28:33.655Z,101062.69
2023-04-02T01:29:48.629Z,101062.69
2023-04-02T01:30:55.864Z,101076.13
2023-04-02T01:32:02.767Z,101068.03
2023-04-02T01:33:05.653Z,101071.47
2023-04-02T01:34:09.721Z,101078.63
2023-04-02T01:35:12.067Z,101071.50
2023-04-02T01:36:27.881Z,101072.44
2023-04-02T01:37:36.689Z,101074.34
2023-04-02T01:38:58.031Z,101079.72
2023-04-02T01:40:14.697Z,101086.81
2023-04-02T01:41:47.503Z,101076.19
2023-04-02T01:43:26.642Z,101086.81
2023-04-02T01:44:38.942Z,101085.75
2023-04-02T01:45:40.540Z,101093.91
2023-04-02T01:46:44.737Z,101092.88
2023-04-02T01:47:46.712Z,101096.47
2023-04-02T01:48:48.182Z,101093.06
2023-04-02T01:49:49.649Z,101088.44
2023-04-02T01:50:55.187Z,101101.00
2023-04-02T01:51:56.986Z,101102.81
2023-04-02T01:53:02.299Z,101108.13
2023-04-02T01:54:06.008Z,101109.88
2023-04-02T01:55:12.149Z,101109.03
2023-04-02T01:56:13.771Z,101113.44
2023-04-02T01:57:16.515Z,101113.56
2023-04-02T01:58:25.042Z,101111.75
2023-04-02T01:59:26.722Z,101110.88
2023-04-02T02:00:30.651Z,101118.06
2023-04-02T02:01:40.940Z,101124.34
2023-04-02T02:02:44.572Z,101125.25
2023-04-02T02:03:46.306Z,101118.88
2023-04-02T02:04:48.569Z,101124.44
2023-04-02T02:05:51.133Z,101128.13
2023-04-02T02:06:52.625Z,101124.47
2023-04-02T02:07:57.129Z,101133.44
2023-04-02T02:09:03.759Z,101137.81
2023-04-02T02:10:05.648Z,101134.28
2023-04-02T02:11:11.731Z,101133.28
2023-04-02T02:12:14.889Z,101144.16
2023-04-02T02:13:16.711Z,101146.06
2023-04-02T02:14:21.982Z,101144.09
2023-04-02T02:15:24.212Z,101144.06
2023-04-02T02:16:27.684Z,101137.72
2023-04-02T02:17:34.426Z,101151.31
2023-04-02T02:18:36.408Z,101150.31
2023-04-02T02:19:52.870Z,101147.75
2023-04-02T02:20:57.133Z,101150.28
2023-04-02T02:22:37.079Z,101159.44
2023-04-02T02:23:38.696Z,101154.94
2023-04-02T02:24:41.130Z,101159.38
2023-04-02T02:25:43.369Z,101157.59
2023-04-02T02:26:48.219Z,101160.47
2023-04-02T02:28:28.776Z,101165.84
2023-04-02T02:29:35.031Z,101168.41
2023-04-02T02:30:45.825Z,101159.38
2023-04-02T02:31:52.460Z,101168.31
2023-04-02T02:33:05.129Z,101160.06
2023-04-02T02:34:14.560Z,101170.00
2023-04-02T02:35:22.004Z,101160.16
2023-04-02T02:36:29.332Z,101172.66
2023-04-02T02:37:37.160Z,101178.09
2023-04-02T02:39:16.404Z,101177.25
2023-04-02T02:40:24.114Z,101177.22
2023-04-02T02:41:37.823Z,101181.00
2023-04-02T02:42:42.779Z,101176.47
2023-04-02T02:43:57.273Z,101184.56
2023-04-02T02:45:01.860Z,101183.47
2023-04-02T02:46:05.707Z,101187.16
2023-04-02T02:47:15.506Z,101184.38
2023-04-02T02:48:21.401Z,101187.06
2023-04-02T02:49:35.348Z,101188.88
2023-04-02T02:50:37.341Z,101192.72
2023-04-02T02:51:53.979Z,101190.09
2023-04-02T02:52:58.898Z,101192.69
2023-04-02T02:54:04.107Z,101199.75
2023-04-02T02:55:18.726Z,101201.44
2023-04-02T02:56:23.162Z,101196.06
2023-04-02T02:57:33.157Z,101209.47
2023-04-02T02:58:34.764Z,101198.72
2023-04-02T02:59:37.823Z,101203.19
2023-04-02T03:00:40.610Z,101212.34
2023-04-02T03:01:44.154Z,101206.94
2023-04-02T03:02:47.161Z,101206.91
2023-04-02T03:03:52.932Z,101215.84
2023-04-02T03:04:55.571Z,101214.06
2023-04-02T03:06:03.016Z,101211.28
2023-04-02T03:07:08.887Z,101216.81
2023-04-02T03:08:28.322Z,101218.53
2023-04-02T03:09:45.568Z,101228.59
2023-04-02T03:11:05.022Z,101221.22
2023-04-02T03:12:12.494Z,101215.66
2023-04-02T03:13:35.386Z,101232.66
2023-04-02T03:14:44.884Z,101225.44
2023-04-02T03:16:28.334Z,101229.97
2023-04-02T03:17:40.804Z,101236.31
2023-04-02T03:19:05.816Z,101239.88
2023-04-02T03:20:17.576Z,101231.69
2023-04-02T03:21:27.927Z,101238.19
2023-04-02T03:22:37.259Z,101244.34
2023-04-02T03:24:15.906Z,101246.13
2023-04-02T03:25:37.656Z,101249.78
2023-04-02T03:26:59.260Z,101252.41
2023-04-02T03:28:07.872Z,101250.88
2023-04-02T03:29:18.301Z,101252.56
2023-04-02T03:30:30.999Z,101248.06
2023-04-02T03:31:36.526Z,101251.69
2023-04-02T03:32:42.217Z,101258.97
2023-04-02T03:34:01.312Z,101265.31
2023-04-02T03:35:28.978Z,101267.94
2023-04-02T03:36:38.395Z,101264.19
2023-04-02T03:37:46.113Z,101269.41
2023-04-02T03:38:54.339Z,101272.16
2023-04-02T03:40:02.332Z,101280.34
2023-04-02T03:41:17.120Z,101274.84
2023-04-02T03:42:30.150Z,101282.97
2023-04-02T03:43:39.609Z,101273.97
2023-04-02T03:45:17.947Z,101277.63
2023-04-02T03:46:41.953Z,101288.41
2023-04-02T03:47:51.055Z,101289.25
2023-04-02T03:48:58.980Z,101294.66
2023-04-02T03:50:06.336Z,101291.00
2023-04-02T03:51:34.227Z,101295.47
2023-04-02T03:52:37.779Z,101294.72
2023-04-02T03:53:39.345Z,101299.06
2023-04-02T03:54:53.119Z,101307.19
2023-04-02T03:55:57.116Z,101300.84
2023-04-02T03:56:59.371Z,101301.69
2023-04-02T03:58:14.660Z,101301.16
2023-04-02T03:59:34.761Z,101308.22
2023-04-02T04:00:51.212Z,101314.66
2023-04-02T04:01:59.740Z,101316.41
2023-04-02T04:03:14.440Z,101317.03
2023-04-02T04:04:20.792Z,101328.78
2023-04-02T04:05:31.975Z,101324.31
2023-04-02T04:06:35.746Z,101334.91
2023-04-02T04:07:41.590Z,101331.34
2023-04-02T04:08:54.699Z,101331.25
2023-04-02T04:09:58.126Z,101325.88
2023-04-02T04:11:07.481Z,101330.38
2023-04-02T04:12:35.193Z,101334.81
2023-04-02T04:14:14.488Z,101336.56
2023-04-02T04:15:36.024Z,101342.91
2023-04-02T04:17:01.883Z,101347.31
2023-04-02T04:18:10.454Z,101349.16
2023-04-02T04:19:37.915Z,101350.06
2023-04-02T04:20:50.399Z,101353.75
2023-04-02T04:21:57.012Z,101353.84
2023-04-02T04:23:17.348Z,101360.91
2023-04-02T04:24:22.716Z,101359.06
2023-04-02T04:25:30.306Z,101359.97
2023-04-02T04:27:09.419Z,101367.16
2023-04-02T04:28:44.437Z,101364.41
2023-04-02T04:30:06.012Z,101366.22
2023-04-02T04:31:25.331Z,101378.72
2023-04-02T04:32:36.295Z,101376.97
2023-04-02T04:33:46.130Z,101375.50
2023-04-02T04:34:53.576Z,101373.81
2023-04-02T04:35:59.064Z,101384.31
2023-04-02T04:37:07.523Z,101385.16
2023-04-02T04:38:44.161Z,101393.06
2023-04-02T04:39:53.044Z,101394.00
2023-04-02T04:41:01.835Z,101394.94
2023-04-02T04:42:06.451Z,101393.19
2023-04-02T04:43:18.884Z,101393.13
2023-04-02T04:44:37.662Z,101400.28
2023-04-02T04:45:51.714Z,101404.97
2023-04-02T04:46:59.457Z,101397.66
2023-04-02T04:48:06.943Z,101399.41
2023-04-02T04:49:14.546Z,101405.72
2023-04-02T04:50:24.167Z,101408.41
2023-04-02T04:51:42.356Z,101407.78
2023-04-02T04:52:44.476Z,101406.00
2023-04-02T04:53:47.440Z,101412.38
2023-04-02T04:54:48.982Z,101417.75
2023-04-02T04:55:53.975Z,101416.72
2023-04-02T04:57:00.001Z,101414.09
2023-04-02T04:58:23.081Z,101413.97
2023-04-02T04:59:33.833Z,101416.59
2023-04-02T05:01:13.439Z,101424.63
2023-04-02T05:02:22.802Z,101423.66
2023-04-02T05:03:33.161Z,101436.38
2023-04-02T05:04:36.233Z,101433.59
2023-04-02T05:05:40.873Z,101429.09
2023-04-02T05:06:54.389Z,101439.84
2023-04-02T05:08:00.243Z,101434.75
2023-04-02T05:09:11.140Z,101441.19
2023-04-02T05:10:26.446Z,101450.00
2023-04-02T05:11:37.963Z,101441.00
2023-04-02T05:12:49.358Z,101454.66
2023-04-02T05:14:02.132Z,101456.41
2023-04-02T05:15:17.378Z,101451.81
2023-04-02T05:16:38.240Z,101452.81
2023-04-02T05:17:52.807Z,101446.44
2023-04-02T05:19:07.474Z,101464.31
2023-04-02T05:20:18.090Z,101465.34
2023-04-02T05:21:42.853Z,101461.69
2023-04-02T05:22:50.889Z,101459.09
2023-04-02T05:24:18.782Z,101463.53
2023-04-02T05:25:27.901Z,101470.66
2023-04-02T05:26:45.741Z,101465.59
2023-04-02T05:28:01.015Z,101466.44
2023-04-02T05:29:25.240Z,101469.06
2023-04-02T05:30:26.581Z,101476.28
2023-04-02T05:31:38.339Z,101469.28
2023-04-02T05:32:45.988Z,101473.72
2023-04-02T05:33:48.849Z,101475.56
2023-04-02T05:34:54.734Z,101478.53
2023-04-02T05:36:09.355Z,101475.66
2023-04-02T05:37:19.502Z,101480.06
2023-04-02T05:38:25.348Z,101488.34
2023-04-02T05:39:27.368Z,101494.81
2023-04-02T05:40:38.275Z,101487.53
2023-04-02T05:41:43.778Z,101486.53
2023-04-02T05:42:49.311Z,101495.59
2023-04-02T05:43:58.779Z,101488.34
2023-04-02T05:45:08.678Z,101500.13
2023-04-02T05:46:17.483Z,101496.63
2023-04-02T05:47:27.787Z,101498.75
2023-04-02T05:48:32.847Z,101499.81
2023-04-02T05:49:46.395Z,101498.69
2023-04-02T05:50:52.683Z,101511.34
2023-04-02T05:51:58.753Z,101504.28
2023-04-02T05:53:08.698Z,101502.47
2023-04-02T05:54:24.687Z,101511.41
2023-04-02T05:55:32.231Z,101516.69
2023-04-02T05:56:46.968Z,101513.88
2023-04-02T05:58:13.517Z,101511.94
2023-04-02T05:59:27.199Z,101513.19
2023-04-02T06:01:01.460Z,101519.38
2023-04-02T06:02:12.956Z,101522.94
2023-04-02T06:03:40.123Z,101528.38
2023-04-02T06:04:50.592Z,101522.19
2023-04-02T06:05:54.157Z,101527.63
2023-04-02T06:07:05.960Z,101528.50
2023-04-02T06:08:23.849Z,101524.94
2023-04-02T06:09:35.968Z,101533.19
2023-04-02T06:10:47.693Z,101535.94
2023-04-02T06:11:56.764Z,101537.00
2023-04-02T06:13:05.819Z,101535.06
2023-04-02T06:14:11.878Z,101538.75
2023-04-02T06:15:15.478Z,101552.25
2023-04-02T06:16:17.301Z,101549.72
2023-04-02T06:17:21.053Z,101549.69
2023-04-02T06:18:31.308Z,101547.91
2023-04-02T06:19:37.253Z,101558.69
2023-04-02T06:20:38.845Z,101559.50
2023-04-02T06:21:45.615Z,101556.69
2023-04-02T06:22:55.592Z,101557.66
2023-04-02T06:24:02.520Z,101560.31
2023-04-02T06:25:18.029Z,101563.09
2023-04-02T06:26:28.098Z,101564.19
2023-04-02T06:27:30.648Z,101567.63
2023-04-02T06:28:45.202Z,101576.63
2023-04-02T06:29:52.759Z,101566.72
2023-04-02T06:31:00.717Z,101571.28
2023-04-02T06:32:04.069Z,101567.63
2023-04-02T06:33:05.609Z,101580.19
2023-04-02T06:34:15.702Z,101585.63
2023-04-02T06:35:17.378Z,101577.50
2023-04-02T06:36:20.461Z,101579.31
2023-04-02T06:37:21.928Z,101584.72
2023-04-02T06:38:29.409Z,101572.97
2023-04-02T06:39:30.935Z,101574.75
2023-04-02T06:40:33.424Z,101577.81
2023-04-02T06:41:34.867Z,101587.69
2023-04-02T06:42:40.101Z,101596.88
2023-04-02T06:43:47.817Z,101595.88
2023-04-02T06:44:49.885Z,101600.53
2023-04-02T06:45:52.365Z,101583.50
2023-04-02T06:46:59.343Z,101600.75
2023-04-02T06:48:02.703Z,101599.88
2023-04-02T06:49:16.451Z,101598.97
2023-04-02T06:50:31.370Z,101603.75
2023-04-02T06:51:35.689Z,101597.38
2023-04-02T06:52:51.203Z,101595.84
2023-04-02T06:53:53.353Z,101602.06
2023-04-02T06:54:54.857Z,101603.91
2023-04-02T06:56:08.447Z,101611.91
2023-04-02T06:57:12.400Z,101611.03
2023-04-02T06:58:16.383Z,101613.84
2023-04-02T06:59:19.064Z,101602.16
2023-04-02T07:00:48.201Z,101615.47
2023-04-02T07:01:52.463Z,101620.94
2023-04-02T07:02:56.104Z,101620.13
2023-04-02T07:03:58.029Z,101622.84
2023-04-02T07:05:04.587Z,101622.03
2023-04-02T07:06:06.893Z,101630.94
2023-04-02T07:07:08.296Z,101623.66
2023-04-02T07:08:09.824Z,101621.81
2023-04-02T07:09:11.442Z,101622.63
2023-04-02T07:10:12.997Z,101626.44
2023-04-02T07:11:18.239Z,101630.16
2023-04-02T07:12:25.618Z,101637.19
2023-04-02T07:13:27.032Z,101641.41
2023-04-02T07:14:28.471Z,101631.38
2023-04-02T07:15:30.089Z,101637.63
2023-04-02T07:16:33.678Z,101639.25
2023-04-02T07:17:35.172Z,101634.56
2023-04-02T07:18:36.852Z,101634.75
2023-04-02T07:19:38.265Z,101640.28
2023-04-02T07:20:41.605Z,101632.25
2023-04-02T07:21:42.982Z,101632.34
2023-04-02T07:22:44.844Z,101640.38
2023-04-02T07:23:46.322Z,101646.91
2023-04-02T07:24:47.856Z,101648.09
2023-04-02T07:25:50.804Z,101642.75
2023-04-02T07:26:52.219Z,101644.47
2023-04-02T07:27:54.052Z,101646.22
2023-04-02T07:28:56.115Z,101648.09
2023-04-02T07:29:57.476Z,101651.56
2023-04-02T07:30:58.966Z,101652.53
2023-04-02T07:32:00.513Z,101649.81
2023-04-02T07:33:02.123Z,101655.41
2023-04-02T07:34:05.394Z,101642.06
2023-04-02T07:35:07.749Z,101639.72
2023-04-02T07:36:14.162Z,101653.50
2023-04-02T07:37:15.663Z,101651.69
2023-04-02T07:38:17.194Z,101657.34
2023-04-02T07:39:18.677Z,101654.53
2023-04-02T07:40:22.841Z,101652.59
2023-04-02T07:41:24.920Z,101649.84
2023-04-02T07:42:26.261Z,101663.53
2023-04-02T07:43:27.699Z,101651.03
2023-04-02T07:44:29.357Z,101659.38
2023-04-02T07:45:31.412Z,101658.75
2023-04-02T07:46:32.795Z,101654.28
2023-04-02T07:47:34.241Z,101660.72
2023-04-02T07:48:36.409Z,101666.19
2023-04-02T07:49:37.806Z,101666.16
2023-04-02T07:50:39.354Z,101670.44
2023-04-02T07:51:41.102Z,101667.78
2023-04-02T07:52:43.799Z,101672.34
2023-04-02T07:53:45.463Z,101676.94
2023-04-02T07:54:47.288Z,101676.72
2023-04-02T07:55:52.888Z,101664.06
2023-04-02T07:56:54.439Z,101672.25
2023-04-02T07:57:58.183Z,101678.69
2023-04-02T07:58:59.617Z,101680.63
2023-04-02T08:00:01.057Z,101682.81
2023-04-02T08:01:03.749Z,101684.88
2023-04-02T08:02:05.823Z,101680.44
2023-04-02T08:03:07.515Z,101682.47
2023-04-02T08:04:17.388Z,101684.56
2023-04-02T08:05:19.121Z,101687.59
2023-04-02T08:06:21.235Z,101697.56
2023-04-02T08:07:22.569Z,101686.00
2023-04-02T08:08:25.250Z,101686.88
2023-04-02T08:09:27.013Z,101689.31
2023-04-02T08:10:28.449Z,101697.38
2023-04-02T08:11:31.681Z,101698.28
2023-04-02T08:12:33.571Z,101695.75
2023-04-02T08:13:35.348Z,101694.66
2023-04-02T08:14:36.776Z,101692.78
2023-04-02T08:15:38.603Z,101702.59
2023-04-02T08:16:47.427Z,101699.06
2023-04-02T08:17:48.973Z,101697.09
2023-04-02T08:18:50.760Z,101694.34
2023-04-02T08:19:55.200Z,101689.75
2023-04-02T08:20:57.915Z,101694.31
2023-04-02T08:21:59.467Z,101708.75
2023-04-02T08:23:01.088Z,101701.56
2023-04-02T08:24:03.706Z,101703.44
2023-04-02T08:25:05.652Z,101714.19
2023-04-02T08:26:07.445Z,101704.28
2023-04-02T08:27:14.829Z,101710.69
2023-04-02T08:28:16.638Z,101708.09
2023-04-02T08:29:18.308Z,101719.63
2023-04-02T08:30:20.293Z,101714.25
2023-04-02T08:31:21.784Z,101723.31
2023-04-02T08:32:24.123Z,101717.91
2023-04-02T08:33:26.174Z,101708.03
2023-04-02T08:34:28.213Z,101711.66
2023-04-02T08:35:30.385Z,101725.28
2023-04-02T08:36:38.072Z,101727.97
2023-04-02T08:37:39.570Z,101725.25
2023-04-02T08:38:40.970Z,101725.13
2023-04-02T08:39:42.363Z,101734.03
2023-04-02T08:40:47.475Z,101731.34
2023-04-02T08:42:08.085Z,101735.00
2023-04-02T08:43:25.389Z,101730.50
2023-04-02T08:44:52.411Z,101736.41
2023-04-02T08:46:29.260Z,101744.53
2023-04-02T08:47:32.571Z,101737.53
2023-04-02T08:48:36.822Z,101739.47
2023-04-02T08:49:44.507Z,101740.31
2023-04-02T08:50:46.106Z,101752.34
2023-04-02T08:51:47.729Z,101746.78
2023-04-02T08:52:49.382Z,101747.75
2023-04-02T08:53:53.909Z,101748.72
2023-04-02T08:54:57.874Z,101753.47
2023-04-02T08:56:19.634Z,101757.06
2023-04-02T08:57:47.207Z,101749.97
2023-04-02T08:58:53.622Z,101753.75
2023-04-02T09:00:15.763Z,101764.63
2023-04-02T09:01:21.497Z,101760.81
2023-04-02T09:02:28.166Z,101765.91
2023-04-02T09:03:39.826Z,101766.78
2023-04-02T09:04:41.681Z,101773.84
2023-04-02T09:05:45.324Z,101765.84
2023-04-02T09:06:48.222Z,101765.03
2023-04-02T09:07:50.874Z,101776.78
2023-04-02T09:08:54.172Z,101774.97
2023-04-02T09:09:56.379Z,101770.38
2023-04-02T09:11:12.466Z,101778.59
2023-04-02T09:12:25.671Z,101779.53
2023-04-02T09:13:30.099Z,101779.59
2023-04-02T09:14:45.717Z,101789.53
2023-04-02T09:15:47.737Z,101782.84
2023-04-02T09:16:53.805Z,101791.97
2023-04-02T09:18:11.959Z,101784.41
2023-04-02T09:19:29.642Z,101788.88
2023-04-02T09:20:31.091Z,101792.63
2023-04-02T09:21:46.953Z,101788.19
2023-04-02T09:22:51.273Z,101785.50
2023-04-02T09:23:52.655Z,101793.69
2023-04-02T09:24:57.209Z,101786.59
2023-04-02T09:26:04.677Z,101790.31
2023-04-02T09:27:18.347Z,101794.75
2023-04-02T09:28:21.395Z,101800.16
2023-04-02T09:29:40.747Z,101803.03
2023-04-02T09:31:05.499Z,101800.22
2023-04-02T09:32:19.841Z,101807.47
2023-04-02T09:33:40.864Z,101809.16
2023-04-02T09:34:42.278Z,101809.19
2023-04-02T09:35:49.824Z,101818.16
2023-04-02T09:36:52.033Z,101815.16
2023-04-02T09:38:28.061Z,101823.44
2023-04-02T09:39:29.476Z,101814.88
2023-04-02T09:40:39.443Z,101831.84
2023-04-02T09:41:40.982Z,101825.44
2023-04-02T09:42:42.434Z,101829.91
2023-04-02T09:43:43.981Z,101825.41
2023-04-02T09:44:45.747Z,101819.28
2023-04-02T09:45:58.020Z,101826.38
2023-04-02T09:47:04.683Z,101829.88
2023-04-02T09:48:22.859Z,101824.16
2023-04-02T09:49:32.981Z,101819.78
2023-04-02T09:50:34.816Z,101820.06
2023-04-02T09:51:36.561Z,101829.22
2023-04-02T09:52:38.107Z,101824.78
2023-04-02T09:53:42.588Z,101830.03
2023-04-02T09:54:44.533Z,101830.56
2023-04-02T09:55:46.184Z,101835.97
2023-04-02T09:57:04.589Z,101837.38
2023-04-02T09:58:08.248Z,101847.84
2023-04-02T09:59:12.385Z,101848.53
2023-04-02T10:01:31.142Z,101834.75
2023-04-02T10:02:32.715Z,101852.72
2023-04-02T10:03:35.145Z,101850.75
2023-04-02T10:04:47.827Z,101862.56
2023-04-02T10:06:05.308Z,101856.97
2023-04-02T10:07:07.117Z,101855.09
2023-04-02T10:08:28.036Z,101863.31
2023-04-02T10:09:32.385Z,101863.63
2023-04-02T10:10:41.906Z,101867.56
2023-04-02T10:12:51.754Z,101875.81
2023-04-02T10:14:01.050Z,101867.66
2023-04-02T10:15:04.471Z,101866.88
2023-04-02T10:16:34.060Z,101874.16
2023-04-02T10:17:38.001Z,101871.34
2023-04-02T10:18:45.552Z,101868.56
2023-04-02T10:20:06.142Z,101874.22
2023-04-02T10:21:12.034Z,101858.78
2023-04-02T10:22:17.101Z,101864.41
2023-04-02T10:23:19.771Z,101872.44
2023-04-02T10:24:21.207Z,101866.97
2023-04-02T10:25:27.719Z,101870.78
2023-04-02T10:26:37.960Z,101871.22
2023-04-02T10:28:01.778Z,101875.72
2023-04-02T10:29:08.236Z,101879.38
2023-04-02T10:30:25.037Z,101882.63
2023-04-02T10:31:34.084Z,101881.88
2023-04-02T10:32:42.477Z,101876.53
2023-04-02T10:33:49.859Z,101874.16
2023-04-02T10:35:03.601Z,101874.16
2023-04-02T10:36:22.331Z,101867.03
2023-04-02T10:37:47.000Z,101877.81
2023-04-02T10:39:01.690Z,101875.22
2023-04-02T10:40:12.059Z,101875.22
2023-04-02T10:41:19.282Z,101875.34
2023-04-02T10:42:41.971Z,101871.81
2023-04-02T10:44:03.566Z,101877.31
2023-04-02T10:45:44.878Z,101881.09
2023-04-02T10:47:08.033Z,101879.06
2023-04-02T10:48:31.650Z,101887.78
2023-04-02T10:49:42.996Z,101883.19
2023-04-02T10:50:53.563Z,101889.75
2023-04-02T10:52:13.728Z,101891.88
2023-04-02T10:53:19.303Z,101890.50
2023-04-02T10:54:44.946Z,101892.16
2023-04-02T10:56:01.307Z,101900.13
2023-04-02T10:57:18.811Z,101886.78
2023-04-02T10:58:26.417Z,101886.94
2023-04-02T10:59:34.455Z,101900.53
2023-04-02T11:00:39.877Z,101901.41
2023-04-02T11:01:43.500Z,101911.88
2023-04-02T11:03:08.061Z,101906.63
2023-04-02T11:04:37.546Z,101901.34
2023-04-02T11:05:47.670Z,101910.44
2023-04-02T11:07:03.491Z,101908.69
2023-04-02T11:08:19.140Z,101906.97
2023-04-02T11:09:26.562Z,101918.59
2023-04-02T11:10:32.641Z,101917.09
2023-04-02T11:11:44.385Z,101916.03
2023-04-02T11:12:57.772Z,101914.34
2023-04-02T11:14:31.681Z,101926.19
2023-04-02T11:15:35.950Z,101931.47
2023-04-02T11:16:42.538Z,101939.63
2023-04-02T11:17:46.072Z,101935.94
2023-04-02T11:19:20.399Z,101940.28
2023-04-02T11:20:43.924Z,101951.03
2023-04-02T11:22:01.365Z,101944.63
2023-04-02T11:23:13.338Z,101960.16
2023-04-02T11:24:34.287Z,101950.31
2023-04-02T11:25:36.118Z,101953.78
2023-04-02T11:26:41.841Z,101954.88
2023-04-02T11:27:43.349Z,101960.25
2023-04-02T11:28:44.956Z,101956.72
2023-04-02T11:30:13.900Z,101958.22
2023-04-02T11:31:21.954Z,101959.91
2023-04-02T11:32:29.717Z,101968.97
2023-04-02T11:33:38.429Z,101958.13
2023-04-02T11:34:41.410Z,101963.53
2023-04-02T11:35:42.951Z,101953.75
2023-04-02T11:36:50.110Z,101960.03
2023-04-02T11:37:52.190Z,101961.78
2023-04-02T11:38:54.966Z,101962.91
2023-04-02T11:39:59.546Z,101961.03
2023-04-02T11:41:00.985Z,101967.34
2023-04-02T11:42:04.429Z,101968.22
2023-04-02T11:43:33.737Z,101964.72
2023-04-02T11:44:35.337Z,101962.84
2023-04-02T11:45:52.852Z,101974.44
2023-04-02T11:47:18.823Z,101970.75
2023-04-02T11:48:20.568Z,101974.34
2023-04-02T11:49:39.597Z,101972.47
2023-04-02T11:50:44.446Z,101975.88
2023-04-02T11:51:45.857Z,101973.31
2023-04-02T11:52:47.290Z,101984.34
2023-04-02T11:53:51.551Z,101982.63
2023-04-02T11:54:59.573Z,101981.84
2023-04-02T11:56:19.411Z,101989.91
2023-04-02T11:57:52.105Z,101996.25
2023-04-02T11:59:23.640Z,101991.81
2023-04-02T12:00:53.100Z,101995.19
2023-04-02T12:02:18.104Z,101988.63
2023-04-02T12:03:46.230Z,101990.09
2023-04-02T12:05:07.428Z,102000.28
2023-04-02T12:06:25.535Z,101992.00
2023-04-02T12:07:55.792Z,102003.88
2023-04-02T12:09:09.045Z,102005.09
2023-04-02T12:10:20.234Z,101996.25
2023-04-02T12:11:33.666Z,101997.56
2023-04-02T12:12:39.305Z,101999.53
2023-04-02T12:13:40.706Z,101979.88
2023-04-02T12:14:47.881Z,101983.69
2023-04-02T12:15:51.956Z,101982.03
2023-04-02T12:16:53.591Z,101974.00
2023-04-02T12:18:11.374Z,101984.97
2023-04-02T12:19:16.687Z,101981.41
2023-04-02T12:20:21.474Z,101982.38
2023-04-02T12:21:26.430Z,101988.81
2023-04-02T12:22:31.781Z,101984.31
2023-04-02T12:23:36.933Z,101977.81
2023-04-02T12:24:40.553Z,101988.63
2023-04-02T12:25:46.314Z,101987.56
2023-04-02T12:26:48.047Z,101985.75
2023-04-02T12:28:04.251Z,101988.56
2023-04-02T12:29:26.355Z,101994.06
2023-04-02T12:30:29.258Z,101985.97
2023-04-02T12:31:30.975Z,101994.94
2023-04-02T12:32:32.489Z,101984.06
2023-04-02T12:33:37.548Z,101989.53
2023-04-02T12:34:46.082Z,101997.75
2023-04-02T12:35:50.719Z,101990.56
2023-04-02T12:37:03.793Z,102000.56
2023-04-02T12:38:06.041Z,102000.59
2023-04-02T12:39:16.806Z,101991.41
2023-04-02T12:40:18.657Z,102001.38
2023-04-02T12:41:27.231Z,102004.88
2023-04-02T12:42:36.941Z,101997.75
2023-04-02T12:43:39.912Z,102001.44
2023-04-02T12:44:48.808Z,102010.50
2023-04-02T12:45:55.286Z,102006.78
2023-04-02T12:46:58.488Z,102003.19
2023-04-02T12:48:04.492Z,102005.06
2023-04-02T12:49:26.182Z,102013.25
2023-04-02T12:50:27.690Z,102007.59
2023-04-02T12:51:29.460Z,101998.53
2023-04-02T12:52:31.017Z,102004.81
2023-04-02T12:53:41.125Z,101997.56
2023-04-02T12:54:52.243Z,102003.91
2023-04-02T12:55:55.096Z,102004.78
2023-04-02T12:57:25.809Z,102008.47
2023-04-02T12:58:45.140Z,102010.56
2023-04-02T12:59:46.817Z,101998.78
2023-04-02T13:00:49.287Z,102002.41
2023-04-02T13:02:02.589Z,102008.72
2023-04-02T13:03:16.520Z,102015.94
2023-04-02T13:04:18.362Z,102009.56
2023-04-02T13:05:56.456Z,102021.19
2023-04-02T13:06:58.453Z,102012.03
2023-04-02T13:08:00.143Z,102003.84
2023-04-02T13:09:04.312Z,102008.47
2023-04-02T13:10:23.518Z,102006.88
2023-04-02T13:11:36.075Z,102013.41
2023-04-02T13:12:40.409Z,102007.06
2023-04-02T13:13:43.960Z,102000.69